Terminal Aerodrome Forecast
Issued by NWS

Home | Current Version | Previous Version | Text Only | Print | Product List | Glossary On
Versions: 1 2 3 4 5 6 7 8 9 10 11 12 13
000
FTUS42 TJSJ 280534
TAFJBQ
TAF
TJBQ 280534Z 2806/2906 10010KT P6SM FEW025
      TEMPO 2806/2808 -SHRA BKN020
     FM281430 08018G26KT P6SM FEW025
     FM282330 09010KT P6SM FEW025
      AMD NOT SKED TIL 281100=

USA.gov is the U.S. government's official web portal to all federal, state and local government web resources and services.